sensor_id;sensor_type;location;lat;lon;timestamp;temperature;humidity
17092;DHT22;8661;45.700;4.880;2023-04-29T00:00:08;17.10;99.90
17092;DHT22;8661;45.700;4.880;2023-04-29T00:02:35;17.10;99.90
17092;DHT22;8661;45.700;4.880;2023-04-29T00:05:03;17.00;99.90
17092;DHT22;8661;45.700;4.880;2023-04-29T00:07:31;17.00;99.90
17092;DHT22;8661;45.700;4.880;2023-04-29T00:09:58;17.00;99.90
17092;DHT22;8661;45.700;4.880;2023-04-29T00:12:25;17.00;99.90
17092;DHT22;8661;45.700;4.880;2023-04-29T00:14:52;17.00;99.90
17092;DHT22;8661;45.700;4.880;2023-04-29T00:17:21;17.00;99.90
17092;DHT22;8661;45.700;4.880;2023-04-29T00:19:47;17.00;99.90
17092;DHT22;8661;45.700;4.880;2023-04-29T00:22:15;17.00;99.90
17092;DHT22;8661;45.700;4.880;2023-04-29T00:24:42;17.00;99.90
17092;DHT22;8661;45.700;4.880;2023-04-29T00:27:08;17.00;99.90
17092;DHT22;8661;45.700;4.880;2023-04-29T00:29:36;17.00;99.90
17092;DHT22;8661;45.700;4.880;2023-04-29T00:32:03;17.00;99.90
17092;DHT22;8661;45.700;4.880;2023-04-29T00:34:32;17.00;99.90
17092;DHT22;8661;45.700;4.880;2023-04-29T00:36:58;17.00;99.90
17092;DHT22;8661;45.700;4.880;2023-04-29T00:39:26;17.00;99.90
17092;DHT22;8661;45.700;4.880;2023-04-29T00:41:52;17.00;99.90
17092;DHT22;8661;45.700;4.880;2023-04-29T00:44:19;17.00;99.90
17092;DHT22;8661;45.700;4.880;2023-04-29T00:46:46;17.00;99.90
17092;DHT22;8661;45.700;4.880;2023-04-29T00:49:13;17.00;99.90
17092;DHT22;8661;45.700;4.880;2023-04-29T00:51:43;17.00;99.90
17092;DHT22;8661;45.700;4.880;2023-04-29T00:54:10;16.90;99.90
17092;DHT22;8661;45.700;4.880;2023-04-29T00:56:38;17.00;99.90
17092;DHT22;8661;45.700;4.880;2023-04-29T00:59:07;17.00;99.90
17092;DHT22;8661;45.700;4.880;2023-04-29T01:01:35;16.90;99.90
17092;DHT22;8661;45.700;4.880;2023-04-29T01:04:04;16.90;99.90
17092;DHT22;8661;45.700;4.880;2023-04-29T01:06:40;16.90;99.90
17092;DHT22;8661;45.700;4.880;2023-04-29T01:09:25;16.90;99.90
17092;DHT22;8661;45.700;4.880;2023-04-29T01:12:01;16.90;99.90
17092;DHT22;8661;45.700;4.880;2023-04-29T01:14:32;16.90;99.90
17092;DHT22;8661;45.700;4.880;2023-04-29T01:17:04;16.90;99.90
17092;DHT22;8661;45.700;4.880;2023-04-29T01:19:38;16.90;99.90
17092;DHT22;8661;45.700;4.880;2023-04-29T01:22:10;16.80;99.90
17092;DHT22;8661;45.700;4.880;2023-04-29T01:24:38;16.80;99.90
17092;DHT22;8661;45.700;4.880;2023-04-29T01:27:13;16.90;99.90
17092;DHT22;8661;45.700;4.880;2023-04-29T01:29:52;16.80;99.90
17092;DHT22;8661;45.700;4.880;2023-04-29T01:32:28;16.80;99.90
17092;DHT22;8661;45.700;4.880;2023-04-29T01:35:02;16.80;99.90
17092;DHT22;8661;45.700;4.880;2023-04-29T01:37:40;16.80;99.90
17092;DHT22;8661;45.700;4.880;2023-04-29T01:40:15;16.80;99.90
17092;DHT22;8661;45.700;4.880;2023-04-29T01:42:45;16.70;99.90
17092;DHT22;8661;45.700;4.880;2023-04-29T01:45:14;16.60;99.90
17092;DHT22;8661;45.700;4.880;2023-04-29T01:47:42;16.40;99.90
17092;DHT22;8661;45.700;4.880;2023-04-29T01:50:10;16.40;99.90
17092;DHT22;8661;45.700;4.880;2023-04-29T01:52:37;16.40;99.90
17092;DHT22;8661;45.700;4.880;2023-04-29T01:55:05;16.40;99.90
17092;DHT22;8661;45.700;4.880;2023-04-29T01:57:34;16.40;99.90
17092;DHT22;8661;45.700;4.880;2023-04-29T02:00:00;16.40;99.90
17092;DHT22;8661;45.700;4.880;2023-04-29T02:02:29;16.50;99.90
17092;DHT22;8661;45.700;4.880;2023-04-29T02:04:56;16.50;99.90
17092;DHT22;8661;45.700;4.880;2023-04-29T02:07:23;16.50;99.90
17092;DHT22;8661;45.700;4.880;2023-04-29T02:09:50;16.40;99.90
17092;DHT22;8661;45.700;4.880;2023-04-29T02:12:17;16.40;99.90
17092;DHT22;8661;45.700;4.880;2023-04-29T02:14:45;16.40;99.90
17092;DHT22;8661;45.700;4.880;2023-04-29T02:17:13;16.40;99.90
17092;DHT22;8661;45.700;4.880;2023-04-29T02:19:40;16.40;99.90
17092;DHT22;8661;45.700;4.880;2023-04-29T02:22:07;16.40;99.90
17092;DHT22;8661;45.700;4.880;2023-04-29T02:24:35;16.40;99.90
17092;DHT22;8661;45.700;4.880;2023-04-29T02:27:02;16.40;99.90
17092;DHT22;8661;45.700;4.880;2023-04-29T02:29:30;16.40;99.90
17092;DHT22;8661;45.700;4.880;2023-04-29T02:31:59;16.40;99.90
17092;DHT22;8661;45.700;4.880;2023-04-29T02:34:26;16.40;99.90
17092;DHT22;8661;45.700;4.880;2023-04-29T02:36:53;16.40;99.90
17092;DHT22;8661;45.700;4.880;2023-04-29T02:39:20;16.40;99.90
17092;DHT22;8661;45.700;4.880;2023-04-29T02:41:47;16.40;99.90
17092;DHT22;8661;45.700;4.880;2023-04-29T02:44:14;16.40;99.90
17092;DHT22;8661;45.700;4.880;2023-04-29T02:46:41;16.40;99.90
17092;DHT22;8661;45.700;4.880;2023-04-29T02:49:12;16.40;99.90
17092;DHT22;8661;45.700;4.880;2023-04-29T02:51:39;16.40;99.90
17092;DHT22;8661;45.700;4.880;2023-04-29T02:54:07;16.40;99.90
17092;DHT22;8661;45.700;4.880;2023-04-29T02:56:34;16.30;99.90
17092;DHT22;8661;45.700;4.880;2023-04-29T02:59:00;16.30;99.90
17092;DHT22;8661;45.700;4.880;2023-04-29T03:01:27;16.10;99.90
17092;DHT22;8661;45.700;4.880;2023-04-29T03:03:54;16.10;99.90
17092;DHT22;8661;45.700;4.880;2023-04-29T03:06:23;16.00;99.90
17092;DHT22;8661;45.700;4.880;2023-04-29T03:08:50;15.90;99.90
17092;DHT22;8661;45.700;4.880;2023-04-29T03:11:17;15.90;99.90
17092;DHT22;8661;45.700;4.880;2023-04-29T03:13:44;15.70;99.90
17092;DHT22;8661;45.700;4.880;2023-04-29T03:16:12;15.70;99.90
17092;DHT22;8661;45.700;4.880;2023-04-29T03:18:41;15.60;99.90
17092;DHT22;8661;45.700;4.880;2023-04-29T03:21:08;15.60;99.90
17092;DHT22;8661;45.700;4.880;2023-04-29T03:23:36;15.60;99.90
17092;DHT22;8661;45.700;4.880;2023-04-29T03:26:04;15.60;99.90
17092;DHT22;8661;45.700;4.880;2023-04-29T03:28:31;15.60;99.90
17092;DHT22;8661;45.700;4.880;2023-04-29T03:30:58;15.60;99.90
17092;DHT22;8661;45.700;4.880;2023-04-29T03:33:25;15.60;99.90
17092;DHT22;8661;45.700;4.880;2023-04-29T03:35:52;15.50;99.90
17092;DHT22;8661;45.700;4.880;2023-04-29T03:38:19;15.60;99.90
17092;DHT22;8661;45.700;4.880;2023-04-29T03:40:47;15.50;99.90
17092;DHT22;8661;45.700;4.880;2023-04-29T03:43:14;15.50;99.90
17092;DHT22;8661;45.700;4.880;2023-04-29T03:45:41;15.50;99.90
17092;DHT22;8661;45.700;4.880;2023-04-29T03:48:08;15.50;99.90
17092;DHT22;8661;45.700;4.880;2023-04-29T03:50:35;15.50;99.90
17092;DHT22;8661;45.700;4.880;2023-04-29T03:53:02;15.50;99.90
17092;DHT22;8661;45.700;4.880;2023-04-29T03:55:29;15.50;99.90
17092;DHT22;8661;45.700;4.880;2023-04-29T03:57:57;15.50;99.90
17092;DHT22;8661;45.700;4.880;2023-04-29T04:00:24;15.50;99.90
17092;DHT22;8661;45.700;4.880;2023-04-29T04:02:51;15.50;99.90
17092;DHT22;8661;45.700;4.880;2023-04-29T04:05:18;15.50;99.90
17092;DHT22;8661;45.700;4.880;2023-04-29T04:07:46;15.50;99.90
17092;DHT22;8661;45.700;4.880;2023-04-29T04:10:12;15.50;99.90
17092;DHT22;8661;45.700;4.880;2023-04-29T04:12:39;15.50;99.90
17092;DHT22;8661;45.700;4.880;2023-04-29T04:15:08;15.40;99.90
17092;DHT22;8661;45.700;4.880;2023-04-29T04:17:36;15.40;99.90
17092;DHT22;8661;45.700;4.880;2023-04-29T04:20:03;15.40;99.90
17092;DHT22;8661;45.700;4.880;2023-04-29T04:22:30;15.50;99.90
17092;DHT22;8661;45.700;4.880;2023-04-29T04:24:57;15.50;99.90
17092;DHT22;8661;45.700;4.880;2023-04-29T04:27:24;15.50;99.90
17092;DHT22;8661;45.700;4.880;2023-04-29T04:29:52;15.50;99.90
17092;DHT22;8661;45.700;4.880;2023-04-29T04:32:21;15.50;99.90
17092;DHT22;8661;45.700;4.880;2023-04-29T04:34:48;15.50;99.90
17092;DHT22;8661;45.700;4.880;2023-04-29T04:37:15;15.50;99.90
17092;DHT22;8661;45.700;4.880;2023-04-29T04:39:43;15.50;99.90
17092;DHT22;8661;45.700;4.880;2023-04-29T04:42:10;15.50;99.90
17092;DHT22;8661;45.700;4.880;2023-04-29T04:44:36;15.50;99.90
17092;DHT22;8661;45.700;4.880;2023-04-29T04:47:03;15.50;99.90
17092;DHT22;8661;45.700;4.880;2023-04-29T04:49:32;15.40;99.90
17092;DHT22;8661;45.700;4.880;2023-04-29T04:51:59;15.40;99.90
17092;DHT22;8661;45.700;4.880;2023-04-29T04:54:26;15.40;99.90
17092;DHT22;8661;45.700;4.880;2023-04-29T04:56:53;15.40;99.90
17092;DHT22;8661;45.700;4.880;2023-04-29T04:59:20;15.40;99.90
17092;DHT22;8661;45.700;4.880;2023-04-29T05:01:47;15.40;99.90
17092;DHT22;8661;45.700;4.880;2023-04-29T05:04:16;15.40;99.90
17092;DHT22;8661;45.700;4.880;2023-04-29T05:06:45;15.40;99.90
17092;DHT22;8661;45.700;4.880;2023-04-29T05:09:12;15.50;99.90
17092;DHT22;8661;45.700;4.880;2023-04-29T05:11:38;15.40;99.90
17092;DHT22;8661;45.700;4.880;2023-04-29T05:14:06;15.40;99.90
17092;DHT22;8661;45.700;4.880;2023-04-29T05:16:33;15.40;99.90
17092;DHT22;8661;45.700;4.880;2023-04-29T05:19:00;15.40;99.90
17092;DHT22;8661;45.700;4.880;2023-04-29T05:21:27;15.40;99.90
17092;DHT22;8661;45.700;4.880;2023-04-29T05:23:55;15.40;99.90
17092;DHT22;8661;45.700;4.880;2023-04-29T05:26:22;15.40;99.90
17092;DHT22;8661;45.700;4.880;2023-04-29T05:28:49;15.40;99.90
17092;DHT22;8661;45.700;4.880;2023-04-29T05:31:16;15.40;99.90
17092;DHT22;8661;45.700;4.880;2023-04-29T05:33:43;15.40;99.90
17092;DHT22;8661;45.700;4.880;2023-04-29T05:36:09;15.40;99.90
17092;DHT22;8661;45.700;4.880;2023-04-29T05:38:36;15.40;99.90
17092;DHT22;8661;45.700;4.880;2023-04-29T05:41:04;15.50;99.90
17092;DHT22;8661;45.700;4.880;2023-04-29T05:43:31;15.50;99.90
17092;DHT22;8661;45.700;4.880;2023-04-29T05:45:58;15.50;99.90
17092;DHT22;8661;45.700;4.880;2023-04-29T05:48:26;15.50;99.90
17092;DHT22;8661;45.700;4.880;2023-04-29T05:50:53;15.50;99.90
17092;DHT22;8661;45.700;4.880;2023-04-29T05:53:20;15.50;99.90
17092;DHT22;8661;45.700;4.880;2023-04-29T05:55:47;15.50;99.90
17092;DHT22;8661;45.700;4.880;2023-04-29T05:58:16;15.50;99.90
17092;DHT22;8661;45.700;4.880;2023-04-29T06:00:43;15.50;99.90
17092;DHT22;8661;45.700;4.880;2023-04-29T06:03:10;15.50;99.90
17092;DHT22;8661;45.700;4.880;2023-04-29T06:05:37;15.60;99.90
17092;DHT22;8661;45.700;4.880;2023-04-29T06:08:04;15.60;99.90
17092;DHT22;8661;45.700;4.880;2023-04-29T06:10:31;15.60;99.90
17092;DHT22;8661;45.700;4.880;2023-04-29T06:12:58;15.70;99.90
17092;DHT22;8661;45.700;4.880;2023-04-29T06:15:26;15.70;99.90
17092;DHT22;8661;45.700;4.880;2023-04-29T06:17:53;15.70;99.90
17092;DHT22;8661;45.700;4.880;2023-04-29T06:20:21;15.70;99.90
17092;DHT22;8661;45.700;4.880;2023-04-29T06:22:47;15.70;99.90
17092;DHT22;8661;45.700;4.880;2023-04-29T06:25:15;15.70;99.90
17092;DHT22;8661;45.700;4.880;2023-04-29T06:27:42;15.80;99.90
17092;DHT22;8661;45.700;4.880;2023-04-29T06:30:09;15.80;99.90
17092;DHT22;8661;45.700;4.880;2023-04-29T06:32:37;15.80;99.90
17092;DHT22;8661;45.700;4.880;2023-04-29T06:35:05;15.90;99.90
17092;DHT22;8661;45.700;4.880;2023-04-29T06:37:32;15.90;99.90
17092;DHT22;8661;45.700;4.880;2023-04-29T06:39:59;16.00;99.90
17092;DHT22;8661;45.700;4.880;2023-04-29T06:42:26;16.00;99.90
17092;DHT22;8661;45.700;4.880;2023-04-29T06:44:53;16.10;99.90
17092;DHT22;8661;45.700;4.880;2023-04-29T06:47:20;16.30;99.90
17092;DHT22;8661;45.700;4.880;2023-04-29T06:49:48;16.40;99.90
17092;DHT22;8661;45.700;4.880;2023-04-29T06:52:17;16.40;99.90
17092;DHT22;8661;45.700;4.880;2023-04-29T06:54:44;16.40;99.90
17092;DHT22;8661;45.700;4.880;2023-04-29T06:57:10;16.40;99.90
17092;DHT22;8661;45.700;4.880;2023-04-29T06:59:37;16.40;99.90
17092;DHT22;8661;45.700;4.880;2023-04-29T07:02:04;16.40;99.90
17092;DHT22;8661;45.700;4.880;2023-04-29T07:04:34;16.40;99.90
17092;DHT22;8661;45.700;4.880;2023-04-29T07:07:03;16.40;99.90
17092;DHT22;8661;45.700;4.880;2023-04-29T07:09:30;16.50;99.90
17092;DHT22;8661;45.700;4.880;2023-04-29T07:11:57;16.70;99.90
17092;DHT22;8661;45.700;4.880;2023-04-29T07:14:24;16.80;99.90
17092;DHT22;8661;45.700;4.880;2023-04-29T07:16:54;16.90;99.90
17092;DHT22;8661;45.700;4.880;2023-04-29T07:19:21;16.90;99.90
17092;DHT22;8661;45.700;4.880;2023-04-29T07:21:48;16.90;99.90
17092;DHT22;8661;45.700;4.880;2023-04-29T07:24:16;16.90;99.90
17092;DHT22;8661;45.700;4.880;2023-04-29T07:26:43;17.10;99.90
17092;DHT22;8661;45.700;4.880;2023-04-29T07:29:10;17.10;99.90
17092;DHT22;8661;45.700;4.880;2023-04-29T07:31:37;17.20;99.90
17092;DHT22;8661;45.700;4.880;2023-04-29T07:34:07;17.30;99.90
17092;DHT22;8661;45.700;4.880;2023-04-29T07:36:34;17.50;99.90
17092;DHT22;8661;45.700;4.880;2023-04-29T07:39:00;17.60;99.90
17092;DHT22;8661;45.700;4.880;2023-04-29T07:41:29;17.70;99.90
17092;DHT22;8661;45.700;4.880;2023-04-29T07:43:56;17.80;99.90
17092;DHT22;8661;45.700;4.880;2023-04-29T07:46:22;17.70;99.90
17092;DHT22;8661;45.700;4.880;2023-04-29T07:48:49;17.70;99.90
17092;DHT22;8661;45.700;4.880;2023-04-29T07:51:17;17.60;99.90
17092;DHT22;8661;45.700;4.880;2023-04-29T07:53:44;17.60;99.90
17092;DHT22;8661;45.700;4.880;2023-04-29T07:56:10;17.60;99.90
17092;DHT22;8661;45.700;4.880;2023-04-29T07:58:39;17.60;99.90
17092;DHT22;8661;45.700;4.880;2023-04-29T08:01:06;17.60;99.90
17092;DHT22;8661;45.700;4.880;2023-04-29T08:03:33;17.50;99.90
17092;DHT22;8661;45.700;4.880;2023-04-29T08:06:01;17.60;99.90
17092;DHT22;8661;45.700;4.880;2023-04-29T08:08:28;17.80;99.90
17092;DHT22;8661;45.700;4.880;2023-04-29T08:10:55;17.90;99.90
17092;DHT22;8661;45.700;4.880;2023-04-29T08:13:22;18.10;99.90
17092;DHT22;8661;45.700;4.880;2023-04-29T08:15:50;18.10;99.90
17092;DHT22;8661;45.700;4.880;2023-04-29T08:18:18;18.20;99.90
17092;DHT22;8661;45.700;4.880;2023-04-29T08:20:46;18.40;99.90
17092;DHT22;8661;45.700;4.880;2023-04-29T08:23:13;18.70;99.90
17092;DHT22;8661;45.700;4.880;2023-04-29T08:25:41;19.00;99.90
17092;DHT22;8661;45.700;4.880;2023-04-29T08:28:08;19.20;99.90
17092;DHT22;8661;45.700;4.880;2023-04-29T08:30:37;19.30;99.90
17092;DHT22;8661;45.700;4.880;2023-04-29T08:33:06;19.30;99.90
17092;DHT22;8661;45.700;4.880;2023-04-29T08:35:33;19.30;99.90
17092;DHT22;8661;45.700;4.880;2023-04-29T08:38:02;19.40;99.90
17092;DHT22;8661;45.700;4.880;2023-04-29T08:40:32;19.50;99.90
17092;DHT22;8661;45.700;4.880;2023-04-29T08:43:00;19.60;99.90
17092;DHT22;8661;45.700;4.880;2023-04-29T08:45:27;19.60;99.90
17092;DHT22;8661;45.700;4.880;2023-04-29T08:47:55;19.60;99.90
17092;DHT22;8661;45.700;4.880;2023-04-29T08:50:24;19.80;99.90
17092;DHT22;8661;45.700;4.880;2023-04-29T08:52:52;19.90;99.90
17092;DHT22;8661;45.700;4.880;2023-04-29T08:55:19;19.80;99.90
17092;DHT22;8661;45.700;4.880;2023-04-29T08:57:49;19.70;99.90
17092;DHT22;8661;45.700;4.880;2023-04-29T09:00:16;19.70;99.90
17092;DHT22;8661;45.700;4.880;2023-04-29T09:02:46;19.90;99.90
17092;DHT22;8661;45.700;4.880;2023-04-29T09:05:13;20.00;99.90
17092;DHT22;8661;45.700;4.880;2023-04-29T09:07:43;20.10;99.90
17092;DHT22;8661;45.700;4.880;2023-04-29T09:10:10;20.10;99.90
17092;DHT22;8661;45.700;4.880;2023-04-29T09:12:37;20.30;99.90
17092;DHT22;8661;45.700;4.880;2023-04-29T09:15:05;20.40;99.90
17092;DHT22;8661;45.700;4.880;2023-04-29T09:17:40;20.40;99.90
17092;DHT22;8661;45.700;4.880;2023-04-29T09:20:26;20.50;99.90
17092;DHT22;8661;45.700;4.880;2023-04-29T09:22:56;20.40;99.90
17092;DHT22;8661;45.700;4.880;2023-04-29T09:25:24;20.40;99.90
17092;DHT22;8661;45.700;4.880;2023-04-29T09:27:52;20.40;99.90
17092;DHT22;8661;45.700;4.880;2023-04-29T09:30:18;20.50;99.90
17092;DHT22;8661;45.700;4.880;2023-04-29T09:33:03;20.50;99.90
17092;DHT22;8661;45.700;4.880;2023-04-29T09:35:31;20.50;99.90
17092;DHT22;8661;45.700;4.880;2023-04-29T09:38:10;20.50;99.90
17092;DHT22;8661;45.700;4.880;2023-04-29T09:40:38;20.50;99.90
17092;DHT22;8661;45.700;4.880;2023-04-29T09:43:11;20.50;99.90
17092;DHT22;8661;45.700;4.880;2023-04-29T09:45:41;20.30;99.90
17092;DHT22;8661;45.700;4.880;2023-04-29T09:48:10;20.30;99.90
17092;DHT22;8661;45.700;4.880;2023-04-29T09:50:38;20.40;99.90
17092;DHT22;8661;45.700;4.880;2023-04-29T09:53:06;20.50;99.90
17092;DHT22;8661;45.700;4.880;2023-04-29T09:55:35;20.50;99.90
17092;DHT22;8661;45.700;4.880;2023-04-29T09:58:02;20.60;99.90
17092;DHT22;8661;45.700;4.880;2023-04-29T10:00:31;20.70;99.90
17092;DHT22;8661;45.700;4.880;2023-04-29T10:03:00;20.80;99.90
17092;DHT22;8661;45.700;4.880;2023-04-29T10:05:28;21.00;99.90
17092;DHT22;8661;45.700;4.880;2023-04-29T10:07:57;21.10;99.90
17092;DHT22;8661;45.700;4.880;2023-04-29T10:10:26;21.40;99.90
17092;DHT22;8661;45.700;4.880;2023-04-29T10:12:55;21.40;99.90
17092;DHT22;8661;45.700;4.880;2023-04-29T10:15:28;21.30;99.90
17092;DHT22;8661;45.700;4.880;2023-04-29T10:18:05;21.40;99.90
17092;DHT22;8661;45.700;4.880;2023-04-29T10:20:36;21.50;99.90
17092;DHT22;8661;45.700;4.880;2023-04-29T10:23:05;21.60;99.90
17092;DHT22;8661;45.700;4.880;2023-04-29T10:25:35;21.70;99.90
17092;DHT22;8661;45.700;4.880;2023-04-29T10:28:05;21.70;99.90
17092;DHT22;8661;45.700;4.880;2023-04-29T10:30:34;21.70;99.90
17092;DHT22;8661;45.700;4.880;2023-04-29T10:33:02;21.70;99.90
17092;DHT22;8661;45.700;4.880;2023-04-29T10:35:30;21.70;99.90
17092;DHT22;8661;45.700;4.880;2023-04-29T10:37:59;21.60;99.90
17092;DHT22;8661;45.700;4.880;2023-04-29T10:40:30;21.90;99.90
17092;DHT22;8661;45.700;4.880;2023-04-29T10:43:03;22.30;99.90
17092;DHT22;8661;45.700;4.880;2023-04-29T10:45:31;22.60;99.90
17092;DHT22;8661;45.700;4.880;2023-04-29T10:48:11;22.80;99.90
17092;DHT22;8661;45.700;4.880;2023-04-29T10:51:02;23.20;99.90
17092;DHT22;8661;45.700;4.880;2023-04-29T10:53:30;23.70;99.90
17092;DHT22;8661;45.700;4.880;2023-04-29T10:55:59;24.00;99.90
17092;DHT22;8661;45.700;4.880;2023-04-29T10:58:37;23.90;99.90
17092;DHT22;8661;45.700;4.880;2023-04-29T11:01:05;23.70;99.90
17092;DHT22;8661;45.700;4.880;2023-04-29T11:04:00;23.60;99.90
17092;DHT22;8661;45.700;4.880;2023-04-29T11:06:38;23.60;99.90
17092;DHT22;8661;45.700;4.880;2023-04-29T11:09:11;23.50;99.90
17092;DHT22;8661;45.700;4.880;2023-04-29T11:11:43;23.30;99.90
17092;DHT22;8661;45.700;4.880;2023-04-29T11:14:12;23.10;99.90
17092;DHT22;8661;45.700;4.880;2023-04-29T11:16:46;23.00;99.90
17092;DHT22;8661;45.700;4.880;2023-04-29T11:19:15;23.00;99.90
17092;DHT22;8661;45.700;4.880;2023-04-29T11:21:44;22.80;99.90
17092;DHT22;8661;45.700;4.880;2023-04-29T11:24:11;22.80;99.90
17092;DHT22;8661;45.700;4.880;2023-04-29T11:26:40;22.80;99.90
17092;DHT22;8661;45.700;4.880;2023-04-29T11:29:08;22.90;99.90
17092;DHT22;8661;45.700;4.880;2023-04-29T11:31:37;23.00;99.90
17092;DHT22;8661;45.700;4.880;2023-04-29T11:34:05;23.00;99.90
17092;DHT22;8661;45.700;4.880;2023-04-29T11:36:33;23.20;99.90
17092;DHT22;8661;45.700;4.880;2023-04-29T11:39:01;23.40;99.90
17092;DHT22;8661;45.700;4.880;2023-04-29T11:41:28;23.50;99.90
17092;DHT22;8661;45.700;4.880;2023-04-29T11:43:56;23.50;99.90
17092;DHT22;8661;45.700;4.880;2023-04-29T11:46:23;23.50;99.90
17092;DHT22;8661;45.700;4.880;2023-04-29T11:48:52;23.60;99.90
17092;DHT22;8661;45.700;4.880;2023-04-29T11:51:18;23.50;99.90
17092;DHT22;8661;45.700;4.880;2023-04-29T11:53:47;23.40;99.90
17092;DHT22;8661;45.700;4.880;2023-04-29T11:56:14;23.30;99.90
17092;DHT22;8661;45.700;4.880;2023-04-29T11:58:41;23.10;99.90
17092;DHT22;8661;45.700;4.880;2023-04-29T12:01:09;23.00;99.90
17092;DHT22;8661;45.700;4.880;2023-04-29T12:03:36;22.90;99.90
17092;DHT22;8661;45.700;4.880;2023-04-29T12:06:04;22.80;99.90
17092;DHT22;8661;45.700;4.880;2023-04-29T12:08:31;22.80;99.90
17092;DHT22;8661;45.700;4.880;2023-04-29T12:10:59;22.70;99.90
17092;DHT22;8661;45.700;4.880;2023-04-29T12:13:28;22.80;99.90
17092;DHT22;8661;45.700;4.880;2023-04-29T12:15:56;22.80;99.90
17092;DHT22;8661;45.700;4.880;2023-04-29T12:18:23;22.80;99.90
17092;DHT22;8661;45.700;4.880;2023-04-29T12:20:52;22.60;99.90
17092;DHT22;8661;45.700;4.880;2023-04-29T12:23:23;22.70;99.90
17092;DHT22;8661;45.700;4.880;2023-04-29T12:25:52;22.80;99.90
17092;DHT22;8661;45.700;4.880;2023-04-29T12:28:20;22.80;99.90
17092;DHT22;8661;45.700;4.880;2023-04-29T12:30:48;22.60;99.90
17092;DHT22;8661;45.700;4.880;2023-04-29T12:33:18;22.60;99.90
17092;DHT22;8661;45.700;4.880;2023-04-29T12:35:47;22.70;99.90
17092;DHT22;8661;45.700;4.880;2023-04-29T12:38:19;22.70;99.90
17092;DHT22;8661;45.700;4.880;2023-04-29T12:40:47;22.80;99.90
17092;DHT22;8661;45.700;4.880;2023-04-29T12:43:15;23.00;99.90
17092;DHT22;8661;45.700;4.880;2023-04-29T12:45:43;23.00;99.90
17092;DHT22;8661;45.700;4.880;2023-04-29T12:48:11;23.10;99.90
17092;DHT22;8661;45.700;4.880;2023-04-29T12:50:38;23.30;99.90
17092;DHT22;8661;45.700;4.880;2023-04-29T12:53:07;23.40;99.90
17092;DHT22;8661;45.700;4.880;2023-04-29T12:55:34;23.40;99.90
17092;DHT22;8661;45.700;4.880;2023-04-29T12:58:04;23.60;99.90
17092;DHT22;8661;45.700;4.880;2023-04-29T13:00:32;23.60;99.90
17092;DHT22;8661;45.700;4.880;2023-04-29T13:03:02;23.60;99.90
17092;DHT22;8661;45.700;4.880;2023-04-29T13:05:29;23.70;99.90
17092;DHT22;8661;45.700;4.880;2023-04-29T13:07:56;23.70;99.90
17092;DHT22;8661;45.700;4.880;2023-04-29T13:10:23;23.60;99.90
17092;DHT22;8661;45.700;4.880;2023-04-29T13:12:50;23.60;99.90
17092;DHT22;8661;45.700;4.880;2023-04-29T13:15:18;23.70;99.90
17092;DHT22;8661;45.700;4.880;2023-04-29T13:17:46;23.90;99.90
17092;DHT22;8661;45.700;4.880;2023-04-29T13:20:12;24.10;99.90
17092;DHT22;8661;45.700;4.880;2023-04-29T13:22:40;24.20;99.90
17092;DHT22;8661;45.700;4.880;2023-04-29T13:25:08;24.40;99.90
17092;DHT22;8661;45.700;4.880;2023-04-29T13:27:36;24.60;99.90
17092;DHT22;8661;45.700;4.880;2023-04-29T13:30:04;24.60;99.90
17092;DHT22;8661;45.700;4.880;2023-04-29T13:32:32;24.80;99.90
17092;DHT22;8661;45.700;4.880;2023-04-29T13:34:59;25.00;99.90
17092;DHT22;8661;45.700;4.880;2023-04-29T13:37:26;25.00;99.90
17092;DHT22;8661;45.700;4.880;2023-04-29T13:39:53;25.00;99.90
17092;DHT22;8661;45.700;4.880;2023-04-29T13:42:20;25.10;99.90
17092;DHT22;8661;45.700;4.880;2023-04-29T13:44:47;25.00;99.90
17092;DHT22;8661;45.700;4.880;2023-04-29T13:47:15;25.00;99.90
17092;DHT22;8661;45.700;4.880;2023-04-29T13:49:44;25.30;99.90
17092;DHT22;8661;45.700;4.880;2023-04-29T13:52:11;25.80;99.90
17092;DHT22;8661;45.700;4.880;2023-04-29T13:54:38;26.00;99.90
17092;DHT22;8661;45.700;4.880;2023-04-29T13:57:05;26.20;99.90
17092;DHT22;8661;45.700;4.880;2023-04-29T13:59:34;26.30;99.90
17092;DHT22;8661;45.700;4.880;2023-04-29T14:02:02;26.20;99.90
17092;DHT22;8661;45.700;4.880;2023-04-29T14:04:29;26.20;99.90
17092;DHT22;8661;45.700;4.880;2023-04-29T14:06:57;26.10;99.90
17092;DHT22;8661;45.700;4.880;2023-04-29T14:09:24;25.90;99.90
17092;DHT22;8661;45.700;4.880;2023-04-29T14:11:51;25.80;99.90
17092;DHT22;8661;45.700;4.880;2023-04-29T14:14:18;25.80;99.90
17092;DHT22;8661;45.700;4.880;2023-04-29T14:16:45;25.60;99.90
17092;DHT22;8661;45.700;4.880;2023-04-29T14:19:15;25.50;99.90
17092;DHT22;8661;45.700;4.880;2023-04-29T14:21:42;25.40;99.90
17092;DHT22;8661;45.700;4.880;2023-04-29T14:24:10;25.30;99.90
17092;DHT22;8661;45.700;4.880;2023-04-29T14:26:38;25.30;99.90
17092;DHT22;8661;45.700;4.880;2023-04-29T14:29:06;25.20;99.90
17092;DHT22;8661;45.700;4.880;2023-04-29T14:31:34;25.30;99.90
17092;DHT22;8661;45.700;4.880;2023-04-29T14:34:02;25.30;99.90
17092;DHT22;8661;45.700;4.880;2023-04-29T14:36:29;25.40;99.90
17092;DHT22;8661;45.700;4.880;2023-04-29T14:38:58;25.60;99.90
17092;DHT22;8661;45.700;4.880;2023-04-29T14:41:26;25.60;99.90
17092;DHT22;8661;45.700;4.880;2023-04-29T14:43:53;25.80;99.90
17092;DHT22;8661;45.700;4.880;2023-04-29T14:46:20;25.80;99.90
17092;DHT22;8661;45.700;4.880;2023-04-29T14:48:48;25.70;99.90
17092;DHT22;8661;45.700;4.880;2023-04-29T14:51:15;25.70;99.90
17092;DHT22;8661;45.700;4.880;2023-04-29T14:53:42;26.00;99.90
17092;DHT22;8661;45.700;4.880;2023-04-29T14:56:09;26.00;99.90
17092;DHT22;8661;45.700;4.880;2023-04-29T14:58:37;26.70;99.60
17092;DHT22;8661;45.700;4.880;2023-04-29T15:01:04;27.00;98.50
17092;DHT22;8661;45.700;4.880;2023-04-29T15:03:31;26.80;98.20
17092;DHT22;8661;45.700;4.880;2023-04-29T15:06:00;26.80;98.50
17092;DHT22;8661;45.700;4.880;2023-04-29T15:08:28;27.00;98.20
17092;DHT22;8661;45.700;4.880;2023-04-29T15:10:55;27.10;97.80
17092;DHT22;8661;45.700;4.880;2023-04-29T15:13:22;27.20;97.60
17092;DHT22;8661;45.700;4.880;2023-04-29T15:15:50;27.20;97.40
17092;DHT22;8661;45.700;4.880;2023-04-29T15:18:17;27.20;96.90
17092;DHT22;8661;45.700;4.880;2023-04-29T15:20:44;26.90;97.20
17092;DHT22;8661;45.700;4.880;2023-04-29T15:23:11;26.80;97.50
17092;DHT22;8661;45.700;4.880;2023-04-29T15:25:38;26.50;97.90
17092;DHT22;8661;45.700;4.880;2023-04-29T15:28:05;26.40;98.00
17092;DHT22;8661;45.700;4.880;2023-04-29T15:30:32;26.30;98.90
17092;DHT22;8661;45.700;4.880;2023-04-29T15:33:01;26.10;98.90
17092;DHT22;8661;45.700;4.880;2023-04-29T15:35:29;26.10;98.50
17092;DHT22;8661;45.700;4.880;2023-04-29T15:37:56;26.10;97.60
17092;DHT22;8661;45.700;4.880;2023-04-29T15:40:23;26.00;98.10
17092;DHT22;8661;45.700;4.880;2023-04-29T15:42:50;26.00;98.10
17092;DHT22;8661;45.700;4.880;2023-04-29T15:45:17;25.90;98.00
17092;DHT22;8661;45.700;4.880;2023-04-29T15:47:44;25.70;98.30
17092;DHT22;8661;45.700;4.880;2023-04-29T15:50:13;25.60;98.60